Darstellungsparameter: Aktuell verwendete Einstellungen:
Skalierung der Graphiken ... ?
xyx+y,   Skalierungsfaktor:      Skalierung: Modus: x, Faktor: 1
Darstellungszeitraum ... ?
Vom - - bis: - -   Zeitraum: 19.11.2019 - 19.11.2019
Min/Max/Avg-Anzeige ... ?
Zeige MMA aktuell
Zeige MMA Monat
Zeige MMA alles
Zeige --A aktuell
Zeige --A Monat
Zeige --A alles
Keine MMA-Anzeige
MMA:
Average (ber die Originaldaten)
MMA-Basis: 19.11.2019 - 19.11.2019
Quicknavigation für Darstellung... ?
Tage:      1T, 2T, 3T, 5T -1T -2T -3T -5T +1T +2T +3T +5T
Wochen: 1W, 2W, 3W -1W -2W -3W +1W +2W +3W
Monate: 1M, 3M, 6M -1M -3M -6M +1M +3M +6M
Jahre:    1J, 3J, 5J, 10J -1J -3J -5J -10J +1J +3J +5J +10J
Nutze für die Darstellung ... ?
Originaldaten oder Mittelwerte auf ...
Stundenbasis Tagesbasis Wochenbasis
Monatsbasis Jahresbasis      Datenbasis: Original-Daten
Darstellen als:
Statistik (Auto) Statistik J:M      Darstellung:
Zur Graphik,    zurück zur Übersicht aller Sensoren.
 
Tabellarische Datenbersicht: ?
 
Sensor: Nr:Datum:Temp:Abs-Feuchte:Windchill:Wind:
Aussen-T/F 1 19-11-2019 00:00:00 3.6 C 5.94 g/m*3 0.39 C 12.9 km/h
2 19-11-2019 00:05:00 3.6 C 5.94 g/m*3 0.39 C 12.9 km/h
3 19-11-2019 00:10:00 3.6 C 5.94 g/m*3 0.11 C 14.5 km/h
4 19-11-2019 00:15:00 3.6 C 5.94 g/m*3 1.46 C 8.1 km/h
5 19-11-2019 00:20:00 3.7 C 5.98 g/m*3 1.18 C 9.7 km/h
6 19-11-2019 00:25:00 3.7 C 5.98 g/m*3 1.58 C 8.1 km/h
7 19-11-2019 00:30:00 3.7 C 5.98 g/m*3 0.82 C 11.3 km/h
8 19-11-2019 00:35:00 3.7 C 5.98 g/m*3 1.58 C 8.1 km/h
9 19-11-2019 00:40:00 3.8 C 6.02 g/m*3 1.29 C 9.7 km/h
10 19-11-2019 00:45:00 3.8 C 6.02 g/m*3 1.29 C 9.7 km/h
11 19-11-2019 00:50:00 3.8 C 6.02 g/m*3 0.63 C 12.9 km/h
12 19-11-2019 00:55:00 3.8 C 6.02 g/m*3 2.21 C 6.4 km/h
13 19-11-2019 01:00:00 3.9 C 6.06 g/m*3 3.9 C 4.8 km/h
14 19-11-2019 01:05:00 3.9 C 6.06 g/m*3 1.06 C 11.3 km/h
15 19-11-2019 01:10:00 3.9 C 6.06 g/m*3 1.82 C 8.1 km/h
16 19-11-2019 01:15:00 4 C 6.1 g/m*3 1.93 C 8.1 km/h
17 19-11-2019 01:20:00 4 C 6.1 g/m*3 2.44 C 6.4 km/h
18 19-11-2019 01:25:00 4 C 6.1 g/m*3 1.93 C 8.1 km/h
19 19-11-2019 01:30:00 4 C 6.1 g/m*3 1.53 C 9.7 km/h
20 19-11-2019 01:35:00 4 C 6.1 g/m*3 1.93 C 8.1 km/h
21 19-11-2019 01:40:00 4.1 C 6.14 g/m*3 4.1 C 4.8 km/h
22 19-11-2019 01:45:00 4.1 C 6.14 g/m*3 2.05 C 8.1 km/h
23 19-11-2019 01:50:00 4.1 C 6.14 g/m*3 4.1 C 3.2 km/h
24 19-11-2019 01:55:00 4.2 C 6.19 g/m*3 2.67 C 6.4 km/h
25 19-11-2019 02:00:00 4.2 C 6.19 g/m*3 4.2 C 4.8 km/h
Sensor: Nr:Datum:Temp:Abs-Feuchte:Windchill:Wind:
Aussen-T/F 26 19-11-2019 02:05:00 4.2 C 6.19 g/m*3 4.2 C 3.2 km/h
27 19-11-2019 02:10:00 4.2 C 6.19 g/m*3 4.2 C 4.8 km/h
28 19-11-2019 02:15:00 4.2 C 6.19 g/m*3 1.77 C 9.7 km/h
29 19-11-2019 02:20:00 4.2 C 6.19 g/m*3 1.43 C 11.3 km/h
30 19-11-2019 02:25:00 4.2 C 6.19 g/m*3 2.67 C 6.4 km/h
31 19-11-2019 02:30:00 4.2 C 6.19 g/m*3 2.17 C 8.1 km/h
32 19-11-2019 02:35:00 4.2 C 6.19 g/m*3 4.2 C 4.8 km/h
33 19-11-2019 02:40:00 4.2 C 6.19 g/m*3 4.2 C 4.8 km/h
34 19-11-2019 02:45:00 4.2 C 6.19 g/m*3 4.2 C 4.8 km/h
35 19-11-2019 02:50:00 4.2 C 6.19 g/m*3 4.2 C 3.2 km/h
36 19-11-2019 02:55:00 4.2 C 6.19 g/m*3 4.2 C 4.8 km/h
37 19-11-2019 03:00:00 4.2 C 6.19 g/m*3 4.2 C 4.8 km/h
38 19-11-2019 03:05:00 4.2 C 6.19 g/m*3 4.2 C 0 km/h
39 19-11-2019 03:10:00 4.2 C 6.19 g/m*3 4.2 C 1.6 km/h
40 19-11-2019 03:15:00 4.2 C 6.19 g/m*3 2.67 C 6.4 km/h
41 19-11-2019 03:20:00 4.3 C 6.23 g/m*3 4.3 C 1.6 km/h
42 19-11-2019 03:25:00 4.3 C 6.23 g/m*3 4.3 C 1.6 km/h
43 19-11-2019 03:30:00 4.2 C 6.19 g/m*3 4.2 C 3.2 km/h
44 19-11-2019 03:35:00 4.3 C 6.23 g/m*3 4.3 C 1.6 km/h
45 19-11-2019 03:40:00 4.3 C 6.23 g/m*3 2.78 C 6.4 km/h
46 19-11-2019 03:45:00 4.3 C 6.23 g/m*3 2.78 C 6.4 km/h
47 19-11-2019 03:50:00 4.3 C 6.23 g/m*3 4.3 C 1.6 km/h
48 19-11-2019 03:55:00 4.3 C 6.23 g/m*3 4.3 C 3.2 km/h
49 19-11-2019 04:00:00 4.3 C 6.23 g/m*3 1.89 C 9.7 km/h
50 19-11-2019 04:05:00 4.3 C 6.23 g/m*3 1.89 C 9.7 km/h
Sensor: Nr:Datum:Temp:Abs-Feuchte:Windchill:Wind:
Aussen-T/F 51 19-11-2019 04:10:00 4.3 C 6.23 g/m*3 1.89 C 9.7 km/h
52 19-11-2019 04:15:00 4.4 C 6.27 g/m*3 2.9 C 6.4 km/h
53 19-11-2019 04:20:00 4.4 C 6.27 g/m*3 2.9 C 6.4 km/h
54 19-11-2019 04:25:00 4.4 C 6.27 g/m*3 4.4 C 1.6 km/h
55 19-11-2019 04:30:00 4.3 C 6.23 g/m*3 2.29 C 8.1 km/h
56 19-11-2019 04:35:00 4.3 C 6.23 g/m*3 2.29 C 8.1 km/h
57 19-11-2019 04:40:00 4.3 C 6.23 g/m*3 4.3 C 3.2 km/h
58 19-11-2019 04:45:00 4.3 C 6.23 g/m*3 2.29 C 8.1 km/h
59 19-11-2019 04:50:00 4.3 C 6.23 g/m*3 2.29 C 8.1 km/h
60 19-11-2019 04:55:00 4.3 C 6.23 g/m*3 4.3 C 3.2 km/h
61 19-11-2019 05:00:00 4.2 C 6.19 g/m*3 4.2 C 3.2 km/h
62 19-11-2019 05:05:00 4.1 C 6.14 g/m*3 4.1 C 0 km/h
63 19-11-2019 05:10:00 3.9 C 6.06 g/m*3 3.9 C 0 km/h
64 19-11-2019 05:15:00 3.8 C 6.02 g/m*3 3.8 C 0 km/h
65 19-11-2019 05:20:00 3.6 C 5.88 g/m*3 3.6 C 0 km/h
66 19-11-2019 05:25:00 3.5 C 5.9 g/m*3 3.5 C 0 km/h
67 19-11-2019 05:30:00 3.3 C 5.76 g/m*3 3.3 C 0 km/h
68 19-11-2019 05:35:00 3.2 C 5.79 g/m*3 3.2 C 0 km/h
69 19-11-2019 05:40:00 3.1 C 5.69 g/m*3 3.1 C 0 km/h
70 19-11-2019 05:45:00 3.1 C 5.75 g/m*3 3.1 C 0 km/h
71 19-11-2019 05:50:00 3 C 5.71 g/m*3 3 C 0 km/h
72 19-11-2019 05:55:00 2.9 C 5.67 g/m*3 1.17 C 6.4 km/h
73 19-11-2019 06:00:00 2.8 C 5.63 g/m*3 2.8 C 0 km/h
74 19-11-2019 06:05:00 2.8 C 5.63 g/m*3 2.8 C 4.8 km/h
75 19-11-2019 06:10:00 2.8 C 5.63 g/m*3 2.8 C 3.2 km/h
Sensor: Nr:Datum:Temp:Abs-Feuchte:Windchill:Wind:
Aussen-T/F 76 19-11-2019 06:15:00 3 C 5.71 g/m*3 3 C 3.2 km/h
77 19-11-2019 06:20:00 3 C 5.71 g/m*3 3 C 1.6 km/h
78 19-11-2019 06:25:00 2.9 C 5.67 g/m*3 2.9 C 1.6 km/h
79 19-11-2019 06:30:00 2.8 C 5.63 g/m*3 2.8 C 4.8 km/h
80 19-11-2019 06:35:00 2.8 C 5.63 g/m*3 2.8 C 4.8 km/h
81 19-11-2019 06:40:00 2.8 C 5.63 g/m*3 2.8 C 3.2 km/h
82 19-11-2019 06:45:00 2.8 C 5.63 g/m*3 2.8 C 1.6 km/h
83 19-11-2019 06:50:00 2.8 C 5.69 g/m*3 2.8 C 3.2 km/h
84 19-11-2019 06:55:00 2.9 C 5.73 g/m*3 2.9 C 0 km/h
85 19-11-2019 07:00:00 2.9 C 5.73 g/m*3 2.9 C 0 km/h
86 19-11-2019 07:05:00 3 C 5.77 g/m*3 3 C 0 km/h
87 19-11-2019 07:10:00 3.1 C 5.81 g/m*3 1.4 C 6.4 km/h
88 19-11-2019 07:15:00 3.1 C 5.81 g/m*3 3.1 C 0 km/h
89 19-11-2019 07:20:00 3.2 C 5.85 g/m*3 3.2 C 0 km/h
90 19-11-2019 07:25:00 3.2 C 5.85 g/m*3 3.2 C 0 km/h
91 19-11-2019 07:30:00 3.1 C 5.81 g/m*3 3.1 C 0 km/h
92 19-11-2019 07:35:00 2.9 C 5.73 g/m*3 2.9 C 0 km/h
93 19-11-2019 07:40:00 2.8 C 5.63 g/m*3 2.8 C 0 km/h
94 19-11-2019 07:45:00 2.7 C 5.59 g/m*3 2.7 C 0 km/h
95 19-11-2019 07:50:00 2.6 C 5.56 g/m*3 2.6 C 0 km/h
96 19-11-2019 07:55:00 2.6 C 5.56 g/m*3 2.6 C 0 km/h
97 19-11-2019 08:00:00 2.6 C 5.61 g/m*3 2.6 C 1.6 km/h
98 19-11-2019 08:05:00 2.7 C 5.65 g/m*3 2.7 C 0 km/h
99 19-11-2019 08:10:00 2.8 C 5.69 g/m*3 2.8 C 0 km/h
100 19-11-2019 08:15:00 2.9 C 5.73 g/m*3 2.9 C 0 km/h
Sensor: Nr:Datum:Temp:Abs-Feuchte:Windchill:Wind:
Aussen-T/F 101 19-11-2019 08:20:00 3 C 5.77 g/m*3 3 C 0 km/h
102 19-11-2019 08:25:00 3.2 C 5.85 g/m*3 1.51 C 6.4 km/h
103 19-11-2019 08:30:00 3.4 C 5.92 g/m*3 3.4 C 4.8 km/h
104 19-11-2019 08:35:00 3.5 C 5.96 g/m*3 3.5 C 4.8 km/h
105 19-11-2019 08:40:00 3.5 C 5.96 g/m*3 3.5 C 4.8 km/h
106 19-11-2019 08:45:00 3.5 C 5.96 g/m*3 3.5 C 1.6 km/h
107 19-11-2019 08:50:00 3.5 C 5.96 g/m*3 3.5 C 0 km/h
108 19-11-2019 08:55:00 3.6 C 6 g/m*3 3.6 C 1.6 km/h
109 19-11-2019 09:00:00 3.7 C 6.04 g/m*3 3.7 C 3.2 km/h
110 19-11-2019 09:05:00 3.9 C 6.13 g/m*3 1.82 C 8.1 km/h
111 19-11-2019 09:10:00 4 C 6.17 g/m*3 2.44 C 6.4 km/h
112 19-11-2019 09:15:00 4 C 6.17 g/m*3 2.44 C 6.4 km/h
113 19-11-2019 09:20:00 4 C 6.17 g/m*3 4 C 4.8 km/h
114 19-11-2019 09:25:00 4.1 C 6.21 g/m*3 4.1 C 4.8 km/h
115 19-11-2019 09:30:00 4.2 C 6.25 g/m*3 2.67 C 6.4 km/h
116 19-11-2019 09:35:00 4.2 C 6.25 g/m*3 1.77 C 9.7 km/h
117 19-11-2019 09:40:00 4.2 C 6.25 g/m*3 4.2 C 4.8 km/h
118 19-11-2019 09:45:00 4.1 C 6.21 g/m*3 4.1 C 4.8 km/h
119 19-11-2019 09:50:00 4 C 6.1 g/m*3 4 C 4.8 km/h
120 19-11-2019 09:55:00 3.9 C 6.06 g/m*3 3.9 C 1.6 km/h
121 19-11-2019 10:00:00 3.9 C 6.06 g/m*3 3.9 C 3.2 km/h
122 19-11-2019 10:05:00 3.9 C 6.06 g/m*3 3.9 C 4.8 km/h
123 19-11-2019 10:10:00 3.9 C 6.06 g/m*3 3.9 C 1.6 km/h
124 19-11-2019 10:15:00 3.9 C 6.06 g/m*3 3.9 C 0 km/h
125 19-11-2019 10:20:00 3.9 C 6.06 g/m*3 3.9 C 1.6 km/h
Sensor: Nr:Datum:Temp:Abs-Feuchte:Windchill:Wind:
Aussen-T/F 126 19-11-2019 10:25:00 4 C 6.17 g/m*3 4 C 0 km/h
127 19-11-2019 10:30:00 4.1 C 6.21 g/m*3 4.1 C 1.6 km/h
128 19-11-2019 10:35:00 4.1 C 6.21 g/m*3 4.1 C 3.2 km/h
129 19-11-2019 10:40:00 4.1 C 6.21 g/m*3 4.1 C 1.6 km/h
130 19-11-2019 10:45:00 4.1 C 6.21 g/m*3 4.1 C 1.6 km/h
131 19-11-2019 10:50:00 4.1 C 6.21 g/m*3 4.1 C 3.2 km/h
132 19-11-2019 10:55:00 4.1 C 6.21 g/m*3 4.1 C 1.6 km/h
133 19-11-2019 11:00:00 4.2 C 6.25 g/m*3 4.2 C 1.6 km/h
134 19-11-2019 11:05:00 4.2 C 6.25 g/m*3 4.2 C 1.6 km/h
135 19-11-2019 11:10:00 4.2 C 6.25 g/m*3 4.2 C 0 km/h
136 19-11-2019 11:15:00 4.3 C 6.29 g/m*3 4.3 C 0 km/h
137 19-11-2019 11:20:00 4.4 C 6.33 g/m*3 4.4 C 1.6 km/h
138 19-11-2019 11:25:00 4.5 C 6.38 g/m*3 4.5 C 1.6 km/h
139 19-11-2019 11:30:00 4.6 C 6.42 g/m*3 4.6 C 3.2 km/h
140 19-11-2019 11:35:00 4.7 C 6.46 g/m*3 4.7 C 0 km/h
141 19-11-2019 11:40:00 4.9 C 6.55 g/m*3 2.27 C 11.3 km/h
142 19-11-2019 11:45:00 5.2 C 6.68 g/m*3 3.82 C 6.4 km/h
143 19-11-2019 11:50:00 5.3 C 6.72 g/m*3 3.46 C 8.1 km/h
144 19-11-2019 11:55:00 5.4 C 6.7 g/m*3 2.87 C 11.3 km/h
145 19-11-2019 12:00:00 5.6 C 6.79 g/m*3 5.6 C 4.8 km/h
146 19-11-2019 12:05:00 5.7 C 6.76 g/m*3 4.4 C 6.4 km/h
147 19-11-2019 12:10:00 5.8 C 6.66 g/m*3 4.05 C 8.1 km/h
148 19-11-2019 12:15:00 6 C 6.68 g/m*3 3.92 C 9.7 km/h
149 19-11-2019 12:20:00 6.2 C 6.69 g/m*3 4.98 C 6.4 km/h
150 19-11-2019 12:25:00 6.3 C 6.74 g/m*3 3.96 C 11.3 km/h
Sensor: Nr:Datum:Temp:Abs-Feuchte:Windchill:Wind:
Aussen-T/F 151 19-11-2019 12:30:00 6.4 C 6.71 g/m*3 6.4 C 4.8 km/h
152 19-11-2019 12:35:00 6.6 C 6.79 g/m*3 5.44 C 6.4 km/h
153 19-11-2019 12:40:00 6.5 C 6.75 g/m*3 4.87 C 8.1 km/h
154 19-11-2019 12:45:00 6.4 C 6.71 g/m*3 5.21 C 6.4 km/h
155 19-11-2019 12:50:00 6.3 C 6.66 g/m*3 5.1 C 6.4 km/h
156 19-11-2019 12:55:00 6.3 C 6.66 g/m*3 4.64 C 8.1 km/h
157 19-11-2019 13:00:00 6.4 C 6.71 g/m*3 6.4 C 4.8 km/h
158 19-11-2019 13:05:00 6.4 C 6.63 g/m*3 6.4 C 3.2 km/h
159 19-11-2019 13:10:00 6.4 C 6.63 g/m*3 6.4 C 4.8 km/h
160 19-11-2019 13:15:00 6.3 C 6.51 g/m*3 5.1 C 6.4 km/h
161 19-11-2019 13:20:00 6.3 C 6.51 g/m*3 4.27 C 9.7 km/h
162 19-11-2019 13:25:00 6.3 C 6.51 g/m*3 4.64 C 8.1 km/h
163 19-11-2019 13:30:00 6.3 C 6.51 g/m*3 6.3 C 4.8 km/h
164 19-11-2019 13:35:00 6.3 C 6.51 g/m*3 4.64 C 8.1 km/h
165 19-11-2019 13:40:00 6.3 C 6.51 g/m*3 6.3 C 3.2 km/h
166 19-11-2019 13:45:00 6.3 C 6.51 g/m*3 5.1 C 6.4 km/h
167 19-11-2019 13:50:00 6.4 C 6.56 g/m*3 4.75 C 8.1 km/h
168 19-11-2019 13:55:00 6.5 C 6.52 g/m*3 4.87 C 8.1 km/h
169 19-11-2019 14:00:00 6.5 C 6.45 g/m*3 5.33 C 6.4 km/h
170 19-11-2019 14:05:00 6.6 C 6.49 g/m*3 4.99 C 8.1 km/h
171 19-11-2019 14:10:00 6.7 C 6.61 g/m*3 5.56 C 6.4 km/h
172 19-11-2019 14:15:00 6.7 C 6.53 g/m*3 5.56 C 6.4 km/h
173 19-11-2019 14:20:00 6.6 C 6.49 g/m*3 6.6 C 4.8 km/h
174 19-11-2019 14:25:00 6.6 C 6.57 g/m*3 4.99 C 8.1 km/h
175 19-11-2019 14:30:00 6.7 C 6.61 g/m*3 6.7 C 3.2 km/h
Sensor: Nr:Datum:Temp:Abs-Feuchte:Windchill:Wind:
Aussen-T/F 176 19-11-2019 14:35:00 6.6 C 6.57 g/m*3 5.44 C 6.4 km/h
177 19-11-2019 14:40:00 6.7 C 6.69 g/m*3 6.7 C 3.2 km/h
178 19-11-2019 14:45:00 6.7 C 6.69 g/m*3 6.7 C 3.2 km/h
179 19-11-2019 14:50:00 6.6 C 6.57 g/m*3 5.44 C 6.4 km/h
180 19-11-2019 14:55:00 6.6 C 6.64 g/m*3 6.6 C 4.8 km/h
181 19-11-2019 15:00:00 6.7 C 6.69 g/m*3 6.7 C 4.8 km/h
182 19-11-2019 15:05:00 6.6 C 6.64 g/m*3 6.6 C 0 km/h
183 19-11-2019 15:10:00 6.7 C 6.76 g/m*3 6.7 C 1.6 km/h
184 19-11-2019 15:15:00 6.7 C 6.76 g/m*3 6.7 C 0 km/h
185 19-11-2019 15:20:00 6.7 C 6.84 g/m*3 6.7 C 0 km/h
186 19-11-2019 15:25:00 6.7 C 6.84 g/m*3 6.7 C 0 km/h
187 19-11-2019 15:30:00 6.7 C 6.91 g/m*3 6.7 C 0 km/h
188 19-11-2019 15:35:00 6.6 C 6.87 g/m*3 6.6 C 0 km/h
189 19-11-2019 15:40:00 6.5 C 6.82 g/m*3 6.5 C 0 km/h
190 19-11-2019 15:45:00 6.4 C 6.78 g/m*3 6.4 C 1.6 km/h
191 19-11-2019 15:50:00 6.2 C 6.69 g/m*3 6.2 C 1.6 km/h
192 19-11-2019 15:55:00 6.1 C 6.65 g/m*3 6.1 C 1.6 km/h
193 19-11-2019 16:00:00 6 C 6.6 g/m*3 6 C 1.6 km/h
194 19-11-2019 16:05:00 5.9 C 6.63 g/m*3 5.9 C 0 km/h
195 19-11-2019 16:10:00 5.9 C 6.63 g/m*3 5.9 C 1.6 km/h
196 19-11-2019 16:15:00 5.8 C 6.66 g/m*3 5.8 C 3.2 km/h
197 19-11-2019 16:20:00 5.7 C 6.62 g/m*3 5.7 C 4.8 km/h
198 19-11-2019 16:25:00 5.7 C 6.62 g/m*3 5.7 C 3.2 km/h
199 19-11-2019 16:30:00 5.5 C 6.53 g/m*3 5.5 C 4.8 km/h
200 19-11-2019 16:35:00 5.4 C 6.49 g/m*3 5.4 C 4.8 km/h
Sensor: Nr:Datum:Temp:Abs-Feuchte:Windchill:Wind:
Aussen-T/F 201 19-11-2019 16:40:00 5.3 C 6.45 g/m*3 5.3 C 1.6 km/h
202 19-11-2019 16:45:00 5.2 C 6.4 g/m*3 5.2 C 1.6 km/h
203 19-11-2019 16:50:00 5.1 C 6.36 g/m*3 5.1 C 1.6 km/h
204 19-11-2019 16:55:00 5 C 6.32 g/m*3 5 C 1.6 km/h
205 19-11-2019 17:00:00 4.8 C 6.24 g/m*3 4.8 C 1.6 km/h
206 19-11-2019 17:05:00 4.7 C 6.19 g/m*3 4.7 C 0 km/h
207 19-11-2019 17:10:00 4.6 C 6.15 g/m*3 4.6 C 1.6 km/h
208 19-11-2019 17:15:00 4.4 C 6.07 g/m*3 4.4 C 0 km/h
209 19-11-2019 17:20:00 4.3 C 6.1 g/m*3 4.3 C 3.2 km/h
210 19-11-2019 17:25:00 4.2 C 6.06 g/m*3 4.2 C 1.6 km/h
211 19-11-2019 17:30:00 4.1 C 6.02 g/m*3 4.1 C 0 km/h
212 19-11-2019 17:35:00 4 C 5.98 g/m*3 4 C 3.2 km/h
213 19-11-2019 17:40:00 3.9 C 5.94 g/m*3 3.9 C 0 km/h
214 19-11-2019 17:45:00 3.8 C 5.9 g/m*3 3.8 C 0 km/h
215 19-11-2019 17:50:00 3.7 C 5.86 g/m*3 3.7 C 1.6 km/h
216 19-11-2019 17:55:00 3.6 C 5.82 g/m*3 3.6 C 3.2 km/h
217 19-11-2019 18:00:00 3.5 C 5.78 g/m*3 3.5 C 1.6 km/h
218 19-11-2019 18:05:00 3.4 C 5.74 g/m*3 3.4 C 1.6 km/h
219 19-11-2019 18:10:00 3.3 C 5.7 g/m*3 3.3 C 0 km/h
220 19-11-2019 18:15:00 3.2 C 5.72 g/m*3 3.2 C 0 km/h
221 19-11-2019 18:20:00 3.2 C 5.72 g/m*3 3.2 C 0 km/h
222 19-11-2019 18:25:00 3.2 C 5.72 g/m*3 3.2 C 0 km/h
223 19-11-2019 18:30:00 3.2 C 5.72 g/m*3 3.2 C 0 km/h
224 19-11-2019 18:35:00 3.2 C 5.72 g/m*3 3.2 C 0 km/h
225 19-11-2019 18:40:00 3.3 C 5.76 g/m*3 3.3 C 0 km/h
Sensor: Nr:Datum:Temp:Abs-Feuchte:Windchill:Wind:
Aussen-T/F 226 19-11-2019 18:45:00 3.4 C 5.86 g/m*3 3.4 C 0 km/h
227 19-11-2019 18:50:00 3.5 C 5.9 g/m*3 3.5 C 0 km/h
228 19-11-2019 18:55:00 3.5 C 5.9 g/m*3 3.5 C 0 km/h
229 19-11-2019 19:00:00 3.4 C 5.8 g/m*3 3.4 C 0 km/h
230 19-11-2019 19:05:00 3.3 C 5.76 g/m*3 3.3 C 0 km/h
231 19-11-2019 19:10:00 3.1 C 5.69 g/m*3 3.1 C 0 km/h
232 19-11-2019 19:15:00 2.9 C 5.61 g/m*3 2.9 C 0 km/h
233 19-11-2019 19:20:00 2.8 C 5.57 g/m*3 2.8 C 0 km/h
234 19-11-2019 19:25:00 2.7 C 5.54 g/m*3 2.7 C 1.6 km/h
235 19-11-2019 19:30:00 2.7 C 5.54 g/m*3 2.7 C 0 km/h
236 19-11-2019 19:35:00 2.6 C 5.5 g/m*3 2.6 C 0 km/h
237 19-11-2019 19:40:00 2.5 C 5.52 g/m*3 2.5 C 0 km/h
238 19-11-2019 19:45:00 2.4 C 5.42 g/m*3 2.4 C 0 km/h
239 19-11-2019 19:50:00 2.3 C 5.39 g/m*3 2.3 C 0 km/h
240 19-11-2019 19:55:00 2.2 C 5.35 g/m*3 2.2 C 0 km/h
241 19-11-2019 20:00:00 2.1 C 5.31 g/m*3 2.1 C 0 km/h
242 19-11-2019 20:05:00 1.9 C 5.24 g/m*3 1.9 C 0 km/h
243 19-11-2019 20:10:00 1.9 C 5.3 g/m*3 1.9 C 0 km/h
244 19-11-2019 20:15:00 2 C 5.33 g/m*3 2 C 0 km/h
245 19-11-2019 20:20:00 2.1 C 5.37 g/m*3 2.1 C 0 km/h
246 19-11-2019 20:25:00 2.2 C 5.41 g/m*3 2.2 C 0 km/h
247 19-11-2019 20:30:00 2.3 C 5.44 g/m*3 2.3 C 0 km/h
248 19-11-2019 20:35:00 2.4 C 5.54 g/m*3 2.4 C 1.6 km/h
249 19-11-2019 20:40:00 2.6 C 5.61 g/m*3 2.6 C 1.6 km/h
250 19-11-2019 20:45:00 2.7 C 5.65 g/m*3 2.7 C 1.6 km/h
Sensor: Nr:Datum:Temp:Abs-Feuchte:Windchill:Wind:
Aussen-T/F 251 19-11-2019 20:50:00 2.7 C 5.59 g/m*3 2.7 C 0 km/h
252 19-11-2019 20:55:00 2.7 C 5.65 g/m*3 2.7 C 0 km/h
253 19-11-2019 21:00:00 2.8 C 5.69 g/m*3 2.8 C 4.8 km/h
254 19-11-2019 21:05:00 2.8 C 5.69 g/m*3 2.8 C 4.8 km/h
255 19-11-2019 21:10:00 2.8 C 5.69 g/m*3 2.8 C 3.2 km/h
256 19-11-2019 21:15:00 2.8 C 5.69 g/m*3 2.8 C 1.6 km/h
257 19-11-2019 21:20:00 2.8 C 5.69 g/m*3 0.52 C 8.1 km/h
258 19-11-2019 21:25:00 2.8 C 5.69 g/m*3 2.8 C 1.6 km/h
259 19-11-2019 21:30:00 2.8 C 5.63 g/m*3 2.8 C 0 km/h
260 19-11-2019 21:35:00 2.8 C 5.63 g/m*3 2.8 C 0 km/h
261 19-11-2019 21:40:00 2.8 C 5.63 g/m*3 2.8 C 0 km/h
262 19-11-2019 21:45:00 2.8 C 5.63 g/m*3 2.8 C 0 km/h
263 19-11-2019 21:50:00 2.8 C 5.69 g/m*3 2.8 C 1.6 km/h
264 19-11-2019 21:55:00 2.9 C 5.73 g/m*3 2.9 C 0 km/h
265 19-11-2019 22:00:00 2.9 C 5.73 g/m*3 2.9 C 0 km/h
266 19-11-2019 22:05:00 2.8 C 5.69 g/m*3 2.8 C 0 km/h
267 19-11-2019 22:10:00 2.8 C 5.63 g/m*3 2.8 C 0 km/h
268 19-11-2019 22:15:00 2.8 C 5.63 g/m*3 2.8 C 0 km/h
269 19-11-2019 22:20:00 2.7 C 5.59 g/m*3 2.7 C 0 km/h
270 19-11-2019 22:25:00 2.5 C 5.52 g/m*3 2.5 C 1.6 km/h
271 19-11-2019 22:30:00 2.4 C 5.48 g/m*3 2.4 C 0 km/h
272 19-11-2019 22:35:00 2.3 C 5.44 g/m*3 2.3 C 0 km/h
273 19-11-2019 22:40:00 2.2 C 5.41 g/m*3 2.2 C 1.6 km/h
274 19-11-2019 22:45:00 2.1 C 5.37 g/m*3 2.1 C 1.6 km/h
275 19-11-2019 22:50:00 2.1 C 5.37 g/m*3 2.1 C 0 km/h
Sensor: Nr:Datum:Temp:Abs-Feuchte:Windchill:Wind:
Aussen-T/F 276 19-11-2019 22:55:00 1.8 C 5.26 g/m*3 1.8 C 0 km/h
277 19-11-2019 23:00:00 1.7 C 5.23 g/m*3 1.7 C 0 km/h
278 19-11-2019 23:05:00 1.6 C 5.19 g/m*3 1.6 C 0 km/h
279 19-11-2019 23:10:00 1.4 C 5.12 g/m*3 1.4 C 0 km/h
280 19-11-2019 23:15:00 1.3 C 5.09 g/m*3 1.3 C 0 km/h
281 19-11-2019 23:20:00 1.2 C 5.05 g/m*3 1.2 C 0 km/h
282 19-11-2019 23:25:00 1.1 C 5.02 g/m*3 1.1 C 0 km/h
283 19-11-2019 23:30:00 1 C 4.98 g/m*3 1 C 0 km/h
284 19-11-2019 23:35:00 0.9 C 4.95 g/m*3 0.9 C 0 km/h
285 19-11-2019 23:40:00 0.8 C 4.91 g/m*3 0.8 C 0 km/h
286 19-11-2019 23:45:00 0.8 C 4.91 g/m*3 0.8 C 0 km/h
287 19-11-2019 23:50:00 0.8 C 4.91 g/m*3 0.8 C 0 km/h
288 19-11-2019 23:55:00 0.7 C 4.88 g/m*3 0.7 C 0 km/h

Legende:
   Min
   Max


Maximal/Minimal-Werte vom 19.11.2019 - 19.11.2019

Sensor Min Max Avg
Temp
(Aussen-T/F)
0.7 °C
19-11-2019  23:55:00
6.7 °C
19-11-2019  14:10:00
3.99 °C
Abs-Feuchte
(Aussen-T/F)
4.88 g/m*3
19-11-2019  23:55:00
6.91 g/m*3
19-11-2019  15:30:00
6.01 g/m*3
Windchill
(Aussen-T/F)
0.11 C
19-11-2019  00:10:00
6.7 C
19-11-2019  14:30:00
3.49 C

Die Daten stammen von einer Davis Vantage Pro 2 Wetter-Station und werden unter Linux mit der Software wview2wettercgi und aufbereitet. Alle Angaben erfolgen ohne Gewähr für ihre Vollständigkeit oder Richtigkeit.
Kontakt: Rainer Krienke krienke@uni-koblenz.de . Meine Webseiten an der Uni Koblenz oder privat.
Version: $Revision: 0.78 $